Pleasantville, Indiana
Current Conditions -  °F | °C
As of 8:15 PM on Monday 26 Jan 2015 (Local Time) from KRSV Reporting Station
Overcast Overcast  
Wind Chill: 23°   Ceiling: 3300
Heat Index: 28°   Visibility: 10mi
Dew Point: 26°   Wind: 5mph
Humidity: 90%   Direction: 180°S
Pressure: 29.97"   Gusts: NA
Location:  38.9636°N, 87.3568°W
Report Text: KRSV 270115Z AUTO 18004KT 10SM OVC033 M02/M03 A2997 RMK AO2 T10211035
Loading
Personal Weather Stations






























Interactive Weather Map New forecast layout! Learn more

10-Day Weather Forecast

Advertisements
Track Severe Weather on mobile